Time;durP1;ratioP1;P1;durP2;ratioP2;P2;SDS_P1;SDS_P2;PMS_P1;PMS_P2;Temp;Humidity;BMP_temperature;BMP_pressure;BME280_temperature;BME280_humidity;BME280_pressure;Samples;Min_cycle;Max_cycle;Signal;HPM_P1;HPM_P2
2020/12/19 00:00:15;;;;;;;13.10;4.05;;;;;;;18.58;42.42;99064.69;5053924;28;20032;-80
2020/12/19 00:02:41;;;;;;;16.10;3.72;;;;;;;18.24;43.13;99070.06;5053991;28;20033;-81
2020/12/19 00:05:07;;;;;;;13.85;3.80;;;;;;;18.66;42.13;99084.78;5054024;28;20024;-80
2020/12/19 00:07:33;;;;;;;22.05;3.90;;;;;;;18.69;41.93;99078.47;5053880;28;20032;-80
2020/12/19 00:10:00;;;;;;;9.95;2.80;;;;;;;18.75;41.83;99079.59;5053688;28;20059;-80
2020/12/19 00:12:26;;;;;;;16.85;3.75;;;;;;;18.39;42.56;99075.50;5035765;28;20025;-80
2020/12/19 00:14:52;;;;;;;23.88;4.97;;;;;;;18.25;43.15;99079.16;5053572;28;20032;-80
2020/12/19 00:17:18;;;;;;;19.73;4.22;;;;;;;18.49;42.31;99071.88;5053489;28;20033;-80
2020/12/19 00:19:44;;;;;;;17.52;4.50;;;;;;;18.18;43.08;99068.13;5053625;28;20430;-80
2020/12/19 00:22:09;;;;;;;19.25;3.88;;;;;;;18.23;42.78;99060.22;5053449;28;20079;-81
2020/12/19 00:24:35;;;;;;;28.50;5.22;;;;;;;18.54;42.70;99058.41;5052868;28;20044;-80
2020/12/19 00:27:01;;;;;;;13.65;4.25;;;;;;;18.68;42.29;99056.75;5053475;28;20043;-80
2020/12/19 00:29:26;;;;;;;13.43;3.58;;;;;;;18.75;42.25;99057.47;5035458;28;20090;-81
2020/12/19 00:31:52;;;;;;;20.17;4.53;;;;;;;18.82;41.94;99062.94;5053282;28;20067;-81
2020/12/19 00:34:18;;;;;;;14.25;4.05;;;;;;;18.95;41.80;99065.19;5053332;28;20025;-80
2020/12/19 00:36:44;;;;;;;20.70;4.00;;;;;;;19.03;41.87;99061.94;5053186;28;20032;-80
2020/12/19 00:39:10;;;;;;;25.45;4.35;;;;;;;18.93;42.17;99062.06;5053295;28;20022;-80
2020/12/19 00:41:35;;;;;;;13.75;3.40;;;;;;;18.69;43.18;99075.69;5053044;28;20059;-92
2020/12/19 00:44:02;;;;;;;20.80;4.82;;;;;;;18.83;43.04;99060.97;5053095;28;20024;-80
2020/12/19 00:46:27;;;;;;;21.95;3.92;;;;;;;18.56;43.65;99049.69;5052995;28;20029;-80
2020/12/19 00:48:53;;;;;;;11.95;3.70;;;;;;;18.77;43.37;99041.25;5052973;28;20490;-80
2020/12/19 00:51:23;;;;;;;16.85;4.82;;;;;;;18.80;43.50;99048.72;5053147;28;20029;-80
2020/12/19 00:53:50;;;;;;;20.38;4.70;;;;;;;18.91;43.08;99047.84;5052941;28;20070;-80
2020/12/19 00:56:17;;;;;;;23.20;5.88;;;;;;;19.07;42.93;99046.09;5052588;28;20522;-80
2020/12/19 00:58:44;;;;;;;21.30;5.93;;;;;;;18.96;43.21;99050.16;5053084;28;20024;-80
2020/12/19 01:01:10;;;;;;;15.02;4.38;;;;;;;18.70;43.62;99049.59;5052803;28;20043;-80
2020/12/19 01:03:35;;;;;;;16.35;3.47;;;;;;;18.76;43.50;99041.66;5052739;28;20029;-80
2020/12/19 01:06:01;;;;;;;13.80;4.40;;;;;;;18.96;42.78;99044.63;5052906;28;20035;-80
2020/12/19 01:08:26;;;;;;;14.50;2.90;;;;;;;18.97;42.76;99035.16;5052740;28;20032;-80
2020/12/19 01:10:52;;;;;;;12.70;3.63;;;;;;;18.69;43.35;99034.19;5052651;28;20025;-80
2020/12/19 01:13:17;;;;;;;18.00;4.30;;;;;;;18.76;42.94;99039.69;5052628;28;20070;-81
2020/12/19 01:15:43;;;;;;;22.25;4.38;;;;;;;18.90;42.97;99040.75;5052560;28;20029;-80
2020/12/19 01:18:11;;;;;;;17.15;3.97;;;;;;;18.71;42.96;99037.34;5052753;28;20108;-80
2020/12/19 01:20:37;;;;;;;13.57;4.20;;;;;;;19.47;41.32;99034.59;5052545;28;20037;-80
2020/12/19 01:23:03;;;;;;;20.15;3.67;;;;;;;19.19;42.07;99030.16;5052243;28;20044;-80
2020/12/19 01:25:29;;;;;;;16.00;5.20;;;;;;;19.23;41.80;99025.38;5052504;28;20037;-80
2020/12/19 01:27:55;;;;;;;15.75;4.15;;;;;;;18.91;42.90;99031.25;5052559;28;20039;-80
2020/12/19 01:30:20;;;;;;;20.10;4.20;;;;;;;19.34;42.06;99018.50;5052434;28;20108;-80
2020/12/19 01:32:46;;;;;;;16.52;4.35;;;;;;;19.27;42.24;99026.91;5052483;28;20460;-80
2020/12/19 01:35:12;;;;;;;15.25;3.78;;;;;;;19.50;41.83;99023.47;5052303;28;20025;-80
2020/12/19 01:37:37;;;;;;;18.20;4.15;;;;;;;19.46;42.11;99021.94;5052339;28;20021;-80
2020/12/19 01:40:03;;;;;;;29.83;5.78;;;;;;;19.48;42.10;99014.00;5052339;28;20028;-80
2020/12/19 01:42:29;;;;;;;19.73;4.53;;;;;;;19.62;41.70;99008.31;5052323;28;20025;-80
2020/12/19 01:44:54;;;;;;;16.85;4.40;;;;;;;19.24;42.70;99004.78;5052345;28;20025;-80
2020/12/19 01:47:21;;;;;;;14.48;3.78;;;;;;;19.78;41.27;99010.47;5052280;28;20414;-86
2020/12/19 01:49:48;;;;;;;19.08;3.65;;;;;;;19.90;40.91;99019.00;5052331;28;20028;-80
2020/12/19 01:52:18;;;;;;;18.13;4.32;;;;;;;19.99;40.50;99010.16;5052211;28;20032;-80
2020/12/19 01:54:45;;;;;;;15.88;3.78;;;;;;;19.97;40.88;99006.25;5052322;28;20025;-80
2020/12/19 01:57:13;;;;;;;16.40;4.72;;;;;;;19.90;40.74;99002.38;5052348;28;20037;-80
2020/12/19 01:59:39;;;;;;;15.35;3.50;;;;;;;19.86;41.03;99001.63;5052704;28;20028;-81
2020/12/19 02:02:08;;;;;;;14.70;3.35;;;;;;;19.97;40.37;99000.72;5052451;28;20112;-81
2020/12/19 02:04:35;;;;;;;14.05;3.42;;;;;;;19.66;41.13;99009.06;5052671;28;20048;-81
2020/12/19 02:07:03;;;;;;;15.63;3.17;;;;;;;19.58;40.98;99005.59;5052591;28;20060;-81
2020/12/19 02:09:38;;;;;;;14.05;2.72;;;;;;;19.79;40.73;99017.56;5055893;28;20048;-92
2020/12/19 02:12:04;;;;;;;20.00;4.32;;;;;;;19.97;40.35;99014.56;5056031;28;20074;-81
2020/12/19 02:14:31;;;;;;;13.75;3.03;;;;;;;19.74;40.94;99012.50;5056130;28;20044;-81
2020/12/19 02:17:11;;;;;;;11.43;2.72;;;;;;;19.82;40.48;99014.78;5055732;28;20061;-80
2020/12/19 02:19:37;;;;;;;7.05;2.22;;;;;;;19.98;40.31;99010.59;5055838;28;20025;-80
2020/12/19 02:22:05;;;;;;;7.38;2.10;;;;;;;20.05;39.85;99016.03;5055794;28;20382;-81
2020/12/19 02:24:31;;;;;;;11.07;2.33;;;;;;;19.84;40.46;99009.59;5037735;28;20384;-81
2020/12/19 02:26:58;;;;;;;7.93;2.55;;;;;;;19.84;40.24;99015.13;5055697;28;20055;-81
2020/12/19 02:29:25;;;;;;;6.40;2.22;;;;;;;19.43;41.23;99003.38;5055769;28;20104;-86
2020/12/19 02:31:54;;;;;;;7.25;1.83;;;;;;;19.46;40.92;99010.84;5055631;28;20082;-80
2020/12/19 02:34:19;;;;;;;4.90;1.48;;;;;;;19.45;41.09;98993.47;5055504;28;20032;-81
2020/12/19 02:36:46;;;;;;;4.63;1.27;;;;;;;19.33;40.84;99003.09;5055403;28;20029;-80
2020/12/19 02:39:12;;;;;;;6.18;1.20;;;;;;;19.99;39.55;98998.31;5055490;28;20419;-80
2020/12/19 02:41:42;;;;;;;6.93;1.15;;;;;;;19.48;40.62;99005.69;5055349;28;20029;-80
2020/12/19 02:44:11;;;;;;;4.05;1.33;;;;;;;19.22;40.97;98991.34;5055433;28;20040;-80
2020/12/19 02:46:36;;;;;;;4.00;0.90;;;;;;;18.90;41.90;99002.00;5055313;28;20029;-80
2020/12/19 02:49:03;;;;;;;5.75;0.95;;;;;;;19.36;40.64;98996.72;5055530;28;20029;-80
2020/12/19 02:51:29;;;;;;;4.20;0.88;;;;;;;19.51;39.88;98985.47;5037290;28;20422;-80
2020/12/19 02:53:54;;;;;;;2.55;0.88;;;;;;;19.39;40.42;98993.13;5055222;28;20048;-80
2020/12/19 02:56:20;;;;;;;1.45;0.60;;;;;;;19.43;40.22;98995.06;5054475;28;20112;-80
2020/12/19 02:58:45;;;;;;;2.92;0.75;;;;;;;19.46;40.34;98983.16;5054180;28;20480;-80
2020/12/19 03:01:11;;;;;;;4.95;0.82;;;;;;;19.10;41.00;98966.97;5036810;28;20040;-80
2020/12/19 03:03:36;;;;;;;4.28;0.85;;;;;;;18.82;41.52;98966.09;5054862;28;20029;-80
2020/12/19 03:06:03;;;;;;;6.15;1.00;;;;;;;18.79;41.54;98955.06;5054830;28;20078;-80
2020/12/19 03:08:28;;;;;;;5.15;1.30;;;;;;;18.51;41.79;98950.56;5054859;28;20068;-80
2020/12/19 03:10:54;;;;;;;1.35;0.70;;;;;;;18.49;41.64;98944.66;5054873;28;20025;-80
2020/12/19 03:13:20;;;;;;;4.40;1.10;;;;;;;19.17;40.29;98946.72;5054875;28;20364;-80
2020/12/19 03:15:46;;;;;;;2.38;0.60;;;;;;;18.97;40.46;98949.34;5036763;28;20036;-80
2020/12/19 03:18:11;;;;;;;1.00;0.70;;;;;;;18.55;41.40;98949.34;5054616;28;20036;-81
2020/12/19 03:20:37;;;;;;;1.10;0.50;;;;;;;18.54;41.34;98950.53;5054560;28;20025;-81
2020/12/19 03:23:03;;;;;;;2.55;0.60;;;;;;;18.62;41.19;98942.94;5054487;28;20028;-80
2020/12/19 03:25:28;;;;;;;2.53;0.70;;;;;;;18.51;41.43;98956.09;5054457;28;20534;-80
2020/12/19 03:27:54;;;;;;;3.80;1.02;;;;;;;18.80;40.79;98948.31;5054477;28;20025;-80
2020/12/19 03:30:24;;;;;;;1.98;0.70;;;;;;;18.56;41.04;98952.88;5054528;28;20124;-81
2020/12/19 03:32:52;;;;;;;5.07;1.10;;;;;;;18.45;41.26;98950.22;5054462;28;20464;-80
2020/12/19 03:35:18;;;;;;;2.17;0.73;;;;;;;18.58;41.19;98942.19;5054366;28;20029;-81
2020/12/19 03:37:44;;;;;;;1.77;1.20;;;;;;;18.95;40.31;98943.41;5054405;28;20099;-80
2020/12/19 03:40:10;;;;;;;4.43;0.75;;;;;;;18.97;40.06;98930.75;5054341;28;20029;-80
2020/12/19 03:42:35;;;;;;;1.52;0.60;;;;;;;19.01;40.01;98928.72;5036423;28;20706;-80
2020/12/19 03:45:02;;;;;;;1.77;0.68;;;;;;;18.74;40.52;98936.13;5036261;28;20032;-81
2020/12/19 03:47:27;;;;;;;4.60;1.40;;;;;;;18.99;40.05;98922.03;5036284;28;20486;-80
2020/12/19 03:49:53;;;;;;;9.48;1.20;;;;;;;18.67;40.71;98931.47;5036331;28;20115;-81
2020/12/19 03:52:18;;;;;;;3.78;0.95;;;;;;;18.46;41.18;98924.16;5053772;28;20029;-80
2020/12/19 03:54:44;;;;;;;5.63;1.40;;;;;;;18.84;40.11;98919.44;5036197;28;20032;-81
2020/12/19 03:57:10;;;;;;;3.60;0.98;;;;;;;18.45;41.12;98928.09;5053974;28;20032;-80
2020/12/19 03:59:35;;;;;;;5.13;1.50;;;;;;;18.73;40.59;98932.59;5053927;28;20033;-80
2020/12/19 04:02:01;;;;;;;2.58;0.90;;;;;;;18.75;40.44;98932.97;5053927;28;20410;-81
2020/12/19 04:04:26;;;;;;;9.85;1.63;;;;;;;18.91;40.12;98926.88;5053396;28;20372;-80
2020/12/19 04:06:52;;;;;;;8.48;1.20;;;;;;;18.91;39.92;98926.09;5053814;28;20487;-81
2020/12/19 04:09:17;;;;;;;6.30;1.60;;;;;;;18.91;40.05;98920.56;5053514;28;20442;-81
2020/12/19 04:11:43;;;;;;;6.50;1.30;;;;;;;18.77;40.38;98925.03;5035490;28;20035;-81
2020/12/19 04:14:08;;;;;;;5.13;1.17;;;;;;;18.67;40.65;98917.66;5035765;28;20083;-80
2020/12/19 04:16:34;;;;;;;7.32;1.38;;;;;;;18.77;40.36;98922.28;5053578;28;20033;-80
2020/12/19 04:19:00;;;;;;;3.47;1.00;;;;;;;18.87;39.94;98923.34;5035557;28;20079;-81
2020/12/19 04:21:25;;;;;;;5.63;1.40;;;;;;;18.47;41.10;98922.16;5053469;28;20037;-80
2020/12/19 04:23:51;;;;;;;4.75;1.45;;;;;;;18.71;40.32;98923.13;5052954;28;20128;-80
2020/12/19 04:26:16;;;;;;;7.72;1.67;;;;;;;18.84;40.16;98922.19;5053526;28;20112;-80
2020/12/19 04:28:42;;;;;;;3.78;1.08;;;;;;;18.71;40.37;98918.38;5053708;28;20029;-80
2020/12/19 04:31:07;;;;;;;7.97;1.92;;;;;;;18.72;40.45;98925.47;5052686;28;20033;-80
2020/12/19 04:33:33;;;;;;;6.32;1.85;;;;;;;18.72;40.25;98914.41;5053327;28;20040;-81
2020/12/19 04:35:59;;;;;;;10.23;2.05;;;;;;;18.66;40.50;98921.59;5053389;28;20395;-81
2020/12/19 04:38:24;;;;;;;11.15;1.73;;;;;;;18.71;40.30;98910.09;5053477;28;20033;-80
2020/12/19 04:40:50;;;;;;;4.93;1.65;;;;;;;18.69;40.38;98912.47;5053199;28;20029;-80
2020/12/19 04:43:18;;;;;;;7.70;2.00;;;;;;;18.78;40.16;98918.31;5053253;28;20042;-80
2020/12/19 04:45:44;;;;;;;5.40;1.60;;;;;;;18.74;40.24;98912.03;5053129;28;20033;-80
2020/12/19 04:48:10;;;;;;;9.45;2.33;;;;;;;18.75;40.50;98907.28;5053110;28;20029;-79
2020/12/19 04:50:39;;;;;;;6.93;1.60;;;;;;;18.74;40.16;98902.94;5053009;28;20064;-81
2020/12/19 04:53:13;;;;;;;5.97;2.15;;;;;;;18.74;40.40;98895.44;5053065;28;20040;-80
2020/12/19 04:55:40;;;;;;;8.95;2.03;;;;;;;18.80;40.21;98895.75;5052871;28;20021;-80
2020/12/19 04:58:10;;;;;;;12.45;2.00;;;;;;;18.79;40.14;98896.94;5052916;28;20393;-80
2020/12/19 05:00:35;;;;;;;6.18;1.73;;;;;;;18.83;40.23;98904.03;5035102;28;20029;-80
2020/12/19 05:03:01;;;;;;;10.20;2.13;;;;;;;18.83;39.96;98906.00;5034917;28;20094;-80
2020/12/19 05:05:26;;;;;;;8.20;1.90;;;;;;;18.84;39.98;98915.88;5052859;28;20025;-80
2020/12/19 05:07:52;;;;;;;9.35;2.22;;;;;;;18.69;40.57;98915.25;5052723;28;20471;-80
2020/12/19 05:10:18;;;;;;;14.90;2.63;;;;;;;18.71;40.47;98915.63;5052881;28;20387;-80
2020/12/19 05:12:51;;;;;;;12.43;2.28;;;;;;;18.72;39.90;98913.63;5052671;28;20045;-80
2020/12/19 05:15:17;;;;;;;8.88;1.85;;;;;;;18.74;40.45;98917.56;5052685;28;20025;-81
2020/12/19 05:17:50;;;;;;;15.45;3.67;;;;;;;18.63;40.61;98916.06;5034844;28;20021;-80
2020/12/19 05:20:17;;;;;;;10.85;2.33;;;;;;;18.72;40.45;98913.63;5052733;28;20021;-81
2020/12/19 05:22:46;;;;;;;11.40;2.88;;;;;;;18.72;40.22;98916.41;5052865;28;20029;-80
2020/12/19 05:25:14;;;;;;;13.55;3.13;;;;;;;18.21;41.55;98923.56;5034599;28;20075;-84
2020/12/19 05:27:42;;;;;;;16.45;3.25;;;;;;;18.62;40.45;98912.53;5034920;28;20033;-80
2020/12/19 05:30:08;;;;;;;10.93;3.35;;;;;;;18.15;41.70;98912.19;5052618;28;20104;-80
2020/12/19 05:32:35;;;;;;;12.95;2.47;;;;;;;18.11;41.56;98914.19;5034790;28;20446;-81
2020/12/19 05:35:06;;;;;;;11.13;3.53;;;;;;;17.94;42.15;98910.38;5034766;28;20021;-80
2020/12/19 05:37:32;;;;;;;21.05;2.88;;;;;;;18.04;42.05;98908.72;5034654;28;20489;-80
2020/12/19 05:39:58;;;;;;;12.18;2.80;;;;;;;18.01;41.98;98895.72;5034419;28;20108;-80
2020/12/19 05:42:24;;;;;;;14.23;3.17;;;;;;;18.02;41.87;98903.59;5036456;28;20047;-80
2020/12/19 05:44:49;;;;;;;16.88;3.20;;;;;;;17.97;41.73;98901.25;5038670;28;20475;-80
2020/12/19 05:47:16;;;;;;;12.35;3.15;;;;;;;17.94;41.72;98898.53;5038671;28;20035;-80
2020/12/19 05:49:42;;;;;;;11.23;2.30;;;;;;;17.94;41.87;98904.06;5038516;28;20032;-80
2020/12/19 05:52:09;;;;;;;16.20;3.70;;;;;;;17.89;41.84;98896.97;5056536;28;20021;-81
2020/12/19 05:54:39;;;;;;;13.45;3.38;;;;;;;17.89;41.70;98896.97;5056356;28;20029;-80
2020/12/19 05:57:08;;;;;;;17.80;3.22;;;;;;;17.86;41.72;98894.25;5056111;28;20036;-80
2020/12/19 05:59:34;;;;;;;21.45;4.05;;;;;;;17.83;41.99;98890.31;5055867;28;20029;-80
2020/12/19 06:02:02;;;;;;;13.45;2.53;;;;;;;17.80;41.88;98898.66;5038330;28;20053;-80
2020/12/19 06:04:28;;;;;;;13.32;3.95;;;;;;;17.75;42.16;98892.34;5038342;28;20554;-79
2020/12/19 06:06:55;;;;;;;15.50;4.10;;;;;;;17.69;42.28;98885.69;5056035;28;20021;-81
2020/12/19 06:09:21;;;;;;;12.77;3.70;;;;;;;17.70;41.79;98890.03;5055950;28;20027;-80
2020/12/19 06:11:52;;;;;;;18.10;4.35;;;;;;;17.86;41.57;98891.50;5055631;28;20064;-80
2020/12/19 06:14:21;;;;;;;20.45;4.82;;;;;;;17.38;42.45;98894.94;5055994;28;20025;-80
2020/12/19 06:16:49;;;;;;;14.88;3.50;;;;;;;17.72;41.77;98904.22;5055905;28;20108;-80
2020/12/19 06:19:23;;;;;;;20.88;5.20;;;;;;;17.72;41.44;98901.47;5055886;28;20106;-81
2020/12/19 06:21:50;;;;;;;12.25;3.75;;;;;;;17.53;42.06;98896.41;5055895;28;20103;-80
2020/12/19 06:24:37;;;;;;;14.32;3.85;;;;;;;17.66;41.58;98900.28;5055505;28;20037;-80
2020/12/19 06:27:03;;;;;;;13.90;3.63;;;;;;;18.08;40.60;98898.44;5055704;28;20032;-80
2020/12/19 06:29:36;;;;;;;12.82;4.40;;;;;;;17.65;41.46;98906.22;5055617;28;20024;-80
2020/12/19 06:32:02;;;;;;;12.48;3.55;;;;;;;17.39;41.80;98907.56;5055666;28;20044;-80
2020/12/19 06:34:28;;;;;;;17.88;4.05;;;;;;;17.40;41.95;98906.38;5055631;28;20025;-80
2020/12/19 06:36:56;;;;;;;15.73;3.20;;;;;;;17.28;42.43;98912.34;5055678;28;20025;-81
2020/12/19 06:39:21;;;;;;;13.00;3.72;;;;;;;17.19;42.79;98908.03;5055567;28;20021;-81
2020/12/19 06:42:01;;;;;;;21.25;4.80;;;;;;;17.74;41.76;98896.31;5055493;28;20557;-80
2020/12/19 06:44:31;;;;;;;17.10;3.90;;;;;;;17.59;42.48;98894.03;5055581;28;20025;-80
2020/12/19 06:46:58;;;;;;;17.80;4.38;;;;;;;17.48;43.14;98888.56;5055380;28;20032;-80
2020/12/19 06:49:24;;;;;;;16.98;5.05;;;;;;;17.72;42.57;98887.66;5055373;28;20071;-80
2020/12/19 06:52:00;;;;;;;21.67;4.10;;;;;;;17.28;43.86;98898.53;5055058;28;20361;-80
2020/12/19 06:54:34;;;;;;;21.15;4.45;;;;;;;17.31;44.01;98889.47;5053066;28;20025;-81
2020/12/19 06:57:01;;;;;;;18.20;3.65;;;;;;;17.55;43.56;98894.06;5053799;28;20033;-80
2020/12/19 06:59:28;;;;;;;15.88;3.40;;;;;;;17.32;44.00;98891.03;5055106;28;20147;-80
2020/12/19 07:02:17;;;;;;;15.10;3.50;;;;;;;17.03;45.05;98887.63;5054900;28;20037;-80
2020/12/19 07:04:43;;;;;;;17.60;3.90;;;;;;;17.19;44.54;98887.94;5055111;28;20025;-80
2020/12/19 07:07:11;;;;;;;22.63;5.25;;;;;;;17.25;44.80;98880.03;5055021;28;20033;-80
2020/12/19 07:09:38;;;;;;;17.05;4.60;;;;;;;17.68;43.63;98880.53;5054873;28;20099;-80
2020/12/19 07:12:04;;;;;;;27.65;5.90;;;;;;;17.57;43.68;98869.56;5055507;28;20594;-95
2020/12/19 07:14:41;;;;;;;23.30;4.38;;;;;;;17.62;43.75;98871.13;5054961;28;20108;-80
2020/12/19 07:17:17;;;;;;;26.05;5.22;;;;;;;17.82;42.89;98869.41;5054926;28;20043;-80
2020/12/19 07:19:43;;;;;;;24.25;5.78;;;;;;;17.42;43.77;98863.34;5055462;28;20021;-94
2020/12/19 07:22:09;;;;;;;16.15;3.83;;;;;;;17.59;43.91;98858.13;5055596;28;20021;-81
2020/12/19 07:24:35;;;;;;;21.02;5.30;;;;;;;17.84;43.05;98852.44;5054574;28;20102;-84
2020/12/19 07:27:00;;;;;;;21.92;4.53;;;;;;;17.56;43.72;98845.13;5056034;28;20032;-81
2020/12/19 07:29:26;;;;;;;13.25;3.97;;;;;;;18.05;42.55;98843.94;5058150;28;20021;-87
2020/12/19 07:32:00;;;;;;;24.88;5.75;;;;;;;18.16;42.64;98841.88;5054817;28;20041;-80
2020/12/19 07:34:27;;;;;;;24.50;4.50;;;;;;;17.71;43.78;98836.38;5054996;28;20118;-79
2020/12/19 07:36:54;;;;;;;18.33;4.90;;;;;;;17.79;43.59;98830.78;5054118;28;20036;-80
2020/12/19 07:39:21;;;;;;;25.55;5.22;;;;;;;17.62;44.20;98815.91;5054010;28;20045;-80
2020/12/19 07:42:05;;;;;;;25.67;5.10;;;;;;;17.62;44.55;98807.63;5055701;28;20029;-89
2020/12/19 07:44:31;;;;;;;20.92;4.80;;;;;;;17.66;44.28;98806.38;5054012;28;20048;-92
2020/12/19 07:47:02;;;;;;;21.88;5.82;;;;;;;17.51;44.37;98804.13;5059985;28;20032;-91
2020/12/19 07:49:30;;;;;;;22.75;4.70;;;;;;;18.00;43.33;98803.75;5063657;28;20021;-79
2020/12/19 07:52:09;;;;;;;25.20;6.32;;;;;;;18.07;42.98;98810.41;5051967;28;20028;-89
2020/12/19 07:54:36;;;;;;;27.85;5.07;;;;;;;17.97;43.32;98796.25;5052301;28;20025;-90
2020/12/19 07:57:02;;;;;;;16.45;3.97;;;;;;;17.70;43.88;98789.78;5054181;28;20513;-79
2020/12/19 07:59:27;;;;;;;22.98;5.65;;;;;;;17.70;43.91;98798.06;5054511;28;20021;-90
2020/12/19 08:01:54;;;;;;;21.50;4.65;;;;;;;17.59;44.11;98789.88;5055301;28;20021;-91
2020/12/19 08:06:56;;;;;;;21.10;5.28;;;;;;;17.69;43.99;98791.00;5318864;22;20117;-73
2020/12/19 08:09:21;;;;;;;25.08;6.18;;;;;;;17.58;43.92;98799.34;5094178;28;20099;-75
2020/12/19 08:11:50;;;;;;;24.00;4.90;;;;;;;17.40;44.47;98798.72;5092860;28;20111;-74
2020/12/19 08:14:16;;;;;;;18.30;4.55;;;;;;;17.70;43.79;98795.31;5092909;28;20032;-74
2020/12/19 08:16:43;;;;;;;27.30;5.93;;;;;;;17.92;43.20;98790.41;5092585;28;20161;-72
2020/12/19 08:19:11;;;;;;;15.40;4.88;;;;;;;18.04;42.85;98789.88;5092509;28;20020;-72
2020/12/19 08:21:38;;;;;;;18.58;4.25;;;;;;;18.00;42.78;98789.16;5089137;28;20030;-74
2020/12/19 08:24:05;;;;;;;21.10;5.07;;;;;;;17.92;43.12;98790.41;5092492;28;20103;-74
2020/12/19 08:26:32;;;;;;;17.75;3.80;;;;;;;18.04;42.70;98787.13;5092543;28;20016;-73
2020/12/19 08:29:09;;;;;;;8.52;2.63;;;;;;;17.82;42.82;98785.75;5093031;28;20016;-74
2020/12/19 08:31:36;;;;;;;17.92;4.68;;;;;;;18.09;42.17;98780.38;5093613;28;20020;-75
2020/12/19 08:34:04;;;;;;;21.15;4.22;;;;;;;17.99;42.51;98784.81;5092174;28;20470;-73
2020/12/19 08:36:31;;;;;;;13.95;4.00;;;;;;;17.53;43.35;98780.44;5092669;28;20072;-73
2020/12/19 08:39:16;;;;;;;15.70;3.05;;;;;;;17.33;43.83;98782.19;5093400;28;20076;-73
2020/12/19 08:41:42;;;;;;;9.98;2.90;;;;;;;17.37;43.80;98782.94;5093472;28;20024;-75
2020/12/19 08:44:22;;;;;;;8.70;2.83;;;;;;;17.26;43.99;98788.53;5093595;28;20069;-74
2020/12/19 08:47:03;;;;;;;13.35;2.58;;;;;;;17.77;42.56;98784.22;5093616;28;20402;-72
2020/12/19 08:49:29;;;;;;;13.10;3.10;;;;;;;17.41;43.81;98773.44;5092462;28;20020;-74
2020/12/19 08:51:56;;;;;;;19.25;3.85;;;;;;;17.65;42.93;98766.16;5093213;28;20543;-73
2020/12/19 08:54:22;;;;;;;7.43;2.15;;;;;;;17.43;43.65;98764.75;5093112;28;20035;-74
2020/12/19 08:56:50;;;;;;;11.43;3.55;;;;;;;17.35;43.87;98774.28;5093083;28;20056;-74
2020/12/19 08:59:27;;;;;;;8.02;2.10;;;;;;;17.59;43.22;98769.75;5093283;28;20103;-77
2020/12/19 09:01:56;;;;;;;12.63;3.00;;;;;;;17.71;42.96;98775.59;5093216;28;20035;-78
2020/12/19 09:04:22;;;;;;;10.82;2.00;;;;;;;17.65;43.25;98779.97;5092560;28;20527;-78
2020/12/19 09:06:50;;;;;;;15.52;2.85;;;;;;;17.77;42.81;98780.69;5093156;28;20048;-75
2020/12/19 09:09:17;;;;;;;11.85;2.65;;;;;;;17.87;42.80;98780.56;5092947;28;20034;-75
2020/12/19 09:11:43;;;;;;;8.80;1.73;;;;;;;17.51;43.25;98763.50;5092873;28;20072;-73
2020/12/19 09:14:13;;;;;;;9.90;1.77;;;;;;;17.35;43.38;98785.31;5093079;28;20028;-78
2020/12/19 09:16:46;;;;;;;;;;;;;;;17.57;42.56;98789.50;5091604;28;20032;-73
2020/12/19 09:19:13;;;;;;;8.35;1.80;;;;;;;17.80;42.55;98785.38;5092031;28;19972;-74
2020/12/19 09:21:38;;;;;;;9.90;2.13;;;;;;;18.18;41.40;98797.25;5092661;28;20024;-73
2020/12/19 09:24:04;;;;;;;6.93;1.73;;;;;;;17.96;41.66;98791.94;5092770;28;20039;-72
2020/12/19 09:26:30;;;;;;;8.75;2.20;;;;;;;18.21;41.37;98802.75;5076145;28;20252;-72
2020/12/19 09:28:55;;;;;;;6.07;1.80;;;;;;;18.60;40.30;98801.53;5072156;28;20052;-74
2020/12/19 09:31:21;;;;;;;5.07;1.40;;;;;;;18.02;41.61;98800.56;5072410;28;20032;-73
2020/12/19 09:33:46;;;;;;;6.65;1.52;;;;;;;18.14;41.38;98805.59;5072481;28;20025;-74
2020/12/19 09:36:12;;;;;;;8.00;1.60;;;;;;;17.98;41.62;98795.06;5072452;28;20040;-75
2020/12/19 09:38:38;;;;;;;7.50;2.50;;;;;;;18.37;40.85;98813.25;5072442;28;20164;-74
2020/12/19 09:41:07;;;;;;;7.13;2.20;;;;;;;18.55;40.14;98810.25;5071688;28;20029;-73
2020/12/19 09:43:33;;;;;;;3.88;1.45;;;;;;;17.98;41.47;98810.84;5072355;28;20470;-73
2020/12/19 09:45:58;;;;;;;4.32;1.30;;;;;;;18.15;41.21;98818.22;5072883;28;20028;-75
2020/12/19 09:48:24;;;;;;;6.78;1.52;;;;;;;18.22;41.21;98820.13;5091175;28;20020;-75
2020/12/19 09:50:49;;;;;;;8.27;1.27;;;;;;;18.07;41.52;98833.31;5091128;28;20036;-75
2020/12/19 09:53:16;;;;;;;5.43;1.20;;;;;;;17.88;41.85;98828.31;5091268;28;20032;-74
2020/12/19 09:55:41;;;;;;;9.00;1.17;;;;;;;18.07;41.73;98841.59;5091182;28;20039;-74
2020/12/19 09:58:07;;;;;;;3.33;1.02;;;;;;;18.03;41.61;98838.06;5090854;28;20023;-75
2020/12/19 10:00:32;;;;;;;3.55;1.05;;;;;;;18.12;41.18;98837.56;5091139;28;20026;-74
2020/12/19 10:02:59;;;;;;;5.68;1.17;;;;;;;18.10;41.53;98851.81;5088168;28;20032;-75
2020/12/19 10:05:25;;;;;;;5.38;0.93;;;;;;;17.96;41.66;98851.94;5088321;28;20044;-75
2020/12/19 10:07:50;;;;;;;8.85;1.40;;;;;;;17.92;41.71;98840.94;5090180;28;20123;-75
2020/12/19 10:10:16;;;;;;;3.42;0.85;;;;;;;17.88;41.55;98851.22;5088327;28;20462;-76
2020/12/19 10:12:42;;;;;;;2.17;1.20;;;;;;;17.98;40.96;98852.31;5089381;28;20488;-75
2020/12/19 10:15:08;;;;;;;3.47;1.25;;;;;;;17.79;41.47;98850.13;5089787;28;20100;-76
2020/12/19 10:17:34;;;;;;;2.20;1.30;;;;;;;17.71;41.36;98852.16;5088501;28;20032;-76
2020/12/19 10:20:00;;;;;;;7.22;1.30;;;;;;;17.59;41.64;98867.19;5088601;28;20032;-74
2020/12/19 10:22:25;;;;;;;5.55;1.13;;;;;;;17.85;41.04;98859.53;5091002;28;20039;-75
2020/12/19 10:24:51;;;;;;;4.60;1.30;;;;;;;17.86;40.99;98869.41;5090550;28;20055;-75
2020/12/19 10:27:17;;;;;;;4.65;1.30;;;;;;;17.85;40.86;98862.31;5088834;28;20525;-75
2020/12/19 10:29:42;;;;;;;2.05;0.60;;;;;;;17.77;41.21;98883.69;5087639;28;20481;-75
2020/12/19 10:32:14;;;;;;;3.47;0.60;;;;;;;17.90;40.69;98887.50;5094450;28;20520;-75
2020/12/19 10:34:40;;;;;;;4.25;0.90;;;;;;;18.15;40.41;98901.13;5090005;28;20049;-74
2020/12/19 10:37:06;;;;;;;3.30;0.82;;;;;;;18.13;40.69;98891.66;5092048;28;20059;-76
2020/12/19 10:39:31;;;;;;;4.57;0.88;;;;;;;18.44;39.77;98903.59;5093069;28;20092;-75
2020/12/19 10:41:57;;;;;;;3.22;1.10;;;;;;;18.71;39.36;98901.78;5090684;28;20078;-75
2020/12/19 10:44:23;;;;;;;2.80;1.08;;;;;;;18.08;40.83;98926.06;5092862;28;20028;-74
2020/12/19 10:46:49;;;;;;;7.35;1.30;;;;;;;18.01;40.79;98926.13;5093461;28;20398;-74
2020/12/19 10:49:14;;;;;;;5.95;1.58;;;;;;;17.62;41.55;98931.88;5093130;28;20048;-74
2020/12/19 10:51:40;;;;;;;2.15;0.90;;;;;;;18.51;39.69;98931.19;5094824;28;20054;-74
2020/12/19 10:54:06;;;;;;;3.10;0.90;;;;;;;18.27;39.79;98933.78;5403485;22;20162;-75
2020/12/19 10:56:32;;;;;;;2.03;0.90;;;;;;;18.59;39.22;98957.63;5062066;28;20150;-77
2020/12/19 10:58:57;;;;;;;5.55;1.02;;;;;;;18.40;39.57;98941.59;5096109;28;20546;-73
2020/12/19 11:01:23;;;;;;;3.45;1.00;;;;;;;18.61;39.23;98957.97;5071966;28;20031;-74
2020/12/19 11:03:49;;;;;;;3.58;1.45;;;;;;;18.47;39.47;98952.59;5073843;28;20059;-75
2020/12/19 11:06:22;;;;;;;1.98;0.85;;;;;;;18.76;39.01;98951.13;5073443;28;20413;-77
2020/12/19 11:08:48;;;;;;;3.50;1.42;;;;;;;18.23;40.15;98966.22;5072725;28;20029;-77
2020/12/19 11:11:14;;;;;;;7.85;1.63;;;;;;;18.29;40.14;98955.50;5068851;28;20116;-78
2020/12/19 11:13:40;;;;;;;2.80;0.98;;;;;;;18.01;40.41;98945.47;5069581;28;20042;-74
2020/12/19 11:16:06;;;;;;;10.07;1.65;;;;;;;18.56;39.25;98942.59;5073534;28;20033;-74
2020/12/19 11:18:32;;;;;;;2.55;1.20;;;;;;;18.26;40.02;98956.31;5072621;28;20086;-74
2020/12/19 11:20:57;;;;;;;2.38;0.93;;;;;;;18.16;40.34;98957.97;5072542;28;20093;-73
2020/12/19 11:23:23;;;;;;;6.20;1.40;;;;;;;17.93;40.75;98957.75;5072742;28;20465;-74
2020/12/19 11:25:52;;;;;;;6.05;1.30;;;;;;;18.09;40.41;98968.31;5071652;28;20060;-74
2020/12/19 11:28:18;;;;;;;6.85;1.60;;;;;;;18.03;40.42;98968.72;5073573;28;20032;-77
2020/12/19 11:30:44;;;;;;;6.35;1.55;;;;;;;17.98;40.58;98968.34;5071227;28;20048;-76